createdAt,value
2023-05-19T00:02:04.099Z,17.28
2023-05-19T00:07:04.101Z,17.23
2023-05-19T00:12:04.092Z,17.14
2023-05-19T00:17:04.104Z,17.1
2023-05-19T00:22:04.095Z,17.14
2023-05-19T00:27:04.107Z,17.12
2023-05-19T00:32:04.109Z,17.02
2023-05-19T00:37:04.110Z,16.98
2023-05-19T00:42:04.112Z,16.83
2023-05-19T00:47:04.104Z,16.77
2023-05-19T00:52:04.115Z,16.61
2023-05-19T00:57:04.107Z,16.5
2023-05-19T01:02:04.118Z,16.45
2023-05-19T01:07:04.120Z,16.29
2023-05-19T01:12:04.111Z,16.15
2023-05-19T01:17:04.123Z,16.06
2023-05-19T01:22:04.114Z,16.09
2023-05-19T01:27:04.126Z,16.06
2023-05-19T01:32:04.127Z,16.08
2023-05-19T01:37:04.129Z,16.04
2023-05-19T01:42:04.130Z,16.02
2023-05-19T01:47:04.122Z,15.94
2023-05-19T01:52:04.133Z,15.93
2023-05-19T01:57:04.125Z,15.81
2023-05-19T02:02:04.136Z,15.73
2023-05-19T02:07:04.139Z,15.81
2023-05-19T02:12:04.181Z,15.96
2023-05-19T02:17:04.143Z,16.07
2023-05-19T02:22:04.132Z,15.91
2023-05-19T02:27:04.144Z,15.64
2023-05-19T02:32:04.135Z,15.71
2023-05-19T02:37:04.147Z,15.75
2023-05-19T02:42:04.148Z,15.81
2023-05-19T02:47:04.140Z,15.78
2023-05-19T02:52:04.151Z,15.53
2023-05-19T02:57:04.143Z,15.39
2023-05-19T03:02:04.154Z,15.26
2023-05-19T03:07:04.156Z,15.37
2023-05-19T03:12:04.157Z,15.23
2023-05-19T03:17:04.159Z,15.09
2023-05-19T03:22:04.150Z,14.9
2023-05-19T03:27:04.162Z,14.86
2023-05-19T03:32:04.153Z,14.66
2023-05-19T03:37:04.164Z,14.49
2023-05-19T03:42:04.166Z,14.46
2023-05-19T03:47:04.157Z,14.51
2023-05-19T03:52:04.168Z,14.49
2023-05-19T03:57:04.160Z,14.56
2023-05-19T04:02:04.171Z,14.62
2023-05-19T04:07:04.173Z,14.64
2023-05-19T04:12:04.174Z,14.62
2023-05-19T04:17:04.175Z,14.55
2023-05-19T04:22:04.167Z,14.58
2023-05-19T04:27:04.178Z,14.69
2023-05-19T04:32:04.169Z,14.74
2023-05-19T04:37:04.181Z,14.92
2023-05-19T04:42:04.182Z,15.06
2023-05-19T04:47:04.207Z,15.2
2023-05-19T04:52:04.185Z,15.28
2023-05-19T04:57:04.176Z,15.54
2023-05-19T05:02:04.188Z,15.66
2023-05-19T05:07:04.203Z,15.71
2023-05-19T05:12:04.190Z,15.7
2023-05-19T05:17:04.232Z,15.76
2023-05-19T05:22:04.183Z,15.85
2023-05-19T05:27:04.195Z,15.89
2023-05-19T05:32:04.186Z,15.92
2023-05-19T05:37:04.198Z,16.12
2023-05-19T05:42:04.199Z,16.58
2023-05-19T05:47:04.201Z,16.87
2023-05-19T05:52:04.204Z,17.09
2023-05-19T05:57:04.194Z,17.12
2023-05-19T06:02:04.205Z,17.33
2023-05-19T06:07:04.197Z,17.56
2023-05-19T06:12:04.208Z,17.67
2023-05-19T06:17:04.210Z,17.67
2023-05-19T06:22:04.201Z,17.7
2023-05-19T06:27:04.215Z,17.74
2023-05-19T06:32:04.204Z,17.96
2023-05-19T06:37:04.216Z,18.23
2023-05-19T06:42:04.218Z,18.42
2023-05-19T06:47:04.219Z,18.45
2023-05-19T06:52:04.223Z,18.51
2023-05-19T06:57:04.213Z,18.58
2023-05-19T07:07:04.216Z,19.04
2023-05-19T07:12:04.228Z,19.09
2023-05-19T07:17:04.229Z,19.54
2023-05-19T07:22:04.221Z,19.74
2023-05-19T07:27:04.235Z,19.9
2023-05-19T07:32:04.225Z,19.64
2023-05-19T07:37:04.236Z,19.25
2023-05-19T07:42:04.228Z,19.03
2023-05-19T07:47:04.240Z,19.2
2023-05-19T07:52:04.244Z,19.76
2023-05-19T07:57:04.233Z,19.7
2023-05-19T08:02:04.271Z,19.69
2023-05-19T08:07:04.237Z,19.33
2023-05-19T08:12:04.251Z,19.45
2023-05-19T08:17:04.250Z,19.41
2023-05-19T08:22:04.252Z,19.46
2023-05-19T08:27:04.256Z,19.41
2023-05-19T08:32:04.246Z,19.75
2023-05-19T08:37:04.257Z,20.02
2023-05-19T08:42:04.249Z,20.45
2023-05-19T08:47:04.261Z,20.95
2023-05-19T08:52:04.264Z,20.98
2023-05-19T08:57:04.255Z,21.42
2023-05-19T09:02:04.269Z,21.62
2023-05-19T09:07:04.258Z,21.71
2023-05-19T09:12:04.270Z,22.29
2023-05-19T09:17:04.272Z,22.65
2023-05-19T09:22:04.274Z,23.04
2023-05-19T09:27:04.277Z,22.81
2023-05-19T09:32:04.268Z,22.27
2023-05-19T09:37:04.280Z,21.68
2023-05-19T09:42:04.272Z,21.51
2023-05-19T09:47:04.284Z,21.22
2023-05-19T09:52:04.286Z,21.23
2023-05-19T09:57:04.278Z,21.31
2023-05-19T10:02:04.292Z,21.09
2023-05-19T10:07:04.282Z,20.61
2023-05-19T10:12:04.295Z,20.23
2023-05-19T10:17:04.296Z,20.14
2023-05-19T10:22:04.299Z,20.4
2023-05-19T10:27:04.351Z,20.78
2023-05-19T10:32:04.291Z,20.71
2023-05-19T10:37:04.349Z,20.88
2023-05-19T10:42:04.296Z,21.11
2023-05-19T10:47:04.309Z,21.11
2023-05-19T10:52:04.311Z,21.22
2023-05-19T10:57:04.353Z,21.15
2023-05-19T11:02:04.314Z,20.93
2023-05-19T11:07:04.304Z,21.04
2023-05-19T11:12:04.318Z,21.05
2023-05-19T11:17:04.308Z,20.91
2023-05-19T11:22:04.322Z,20.54
2023-05-19T11:27:04.324Z,20.91
2023-05-19T11:32:04.314Z,21.81
2023-05-19T11:37:04.328Z,22.01
2023-05-19T11:42:04.318Z,21.85
2023-05-19T11:47:04.332Z,21.67
2023-05-19T11:52:04.334Z,21.45
2023-05-19T11:57:04.336Z,21.3
2023-05-19T12:02:04.338Z,21.52
2023-05-19T12:07:04.328Z,21.72
2023-05-19T12:17:04.332Z,22.49
2023-05-19T12:22:04.346Z,22.53
2023-05-19T12:27:04.348Z,22.34
2023-05-19T12:32:04.338Z,22.34
2023-05-19T12:37:04.352Z,22.54
2023-05-19T12:42:04.342Z,22.96
2023-05-19T12:47:04.356Z,22.68
2023-05-19T12:52:04.358Z,22.22
2023-05-19T12:57:04.360Z,22.43
2023-05-19T13:02:04.362Z,22.83
2023-05-19T13:07:04.352Z,23.48
2023-05-19T13:12:04.366Z,23.08
2023-05-19T13:17:04.356Z,22.61
2023-05-19T13:22:04.420Z,22.41
2023-05-19T13:27:04.372Z,22.17
2023-05-19T13:32:04.416Z,22.49
2023-05-19T13:37:04.376Z,22.94
2023-05-19T13:42:04.366Z,23.3
2023-05-19T13:47:04.380Z,23.33
2023-05-19T13:52:04.370Z,23.27
2023-05-19T13:57:04.384Z,23.17
2023-05-19T14:02:04.386Z,23.12
2023-05-19T14:07:04.377Z,23.51
2023-05-19T14:12:04.391Z,23.91
2023-05-19T14:17:04.381Z,23.97
2023-05-19T14:22:04.395Z,24.19
2023-05-19T14:27:04.397Z,24.48
2023-05-19T14:32:04.399Z,24.71
2023-05-19T14:37:04.401Z,24.67
2023-05-19T14:42:04.392Z,24.79
2023-05-19T14:47:04.405Z,24.7
2023-05-19T14:52:04.396Z,24.52
2023-05-19T14:57:04.410Z,24.26
2023-05-19T15:02:04.412Z,24.29
2023-05-19T15:07:04.402Z,24.17
2023-05-19T15:12:04.417Z,24.19
2023-05-19T15:17:04.407Z,24.44
2023-05-19T15:22:04.421Z,24.51
2023-05-19T15:27:04.423Z,24.69
2023-05-19T15:32:04.425Z,24.99
2023-05-19T15:37:04.428Z,24.81
2023-05-19T15:42:04.418Z,25.18
2023-05-19T15:47:04.484Z,25.31
2023-05-19T15:52:04.422Z,25.73
2023-05-19T15:57:04.437Z,25.6
2023-05-19T16:02:04.439Z,25.11
2023-05-19T16:07:04.505Z,24.87
2023-05-19T16:12:04.443Z,25.04
2023-05-19T16:17:04.434Z,25.49
2023-05-19T16:22:04.448Z,25.52
2023-05-19T16:27:04.438Z,25.51
2023-05-19T16:32:04.452Z,25.19
2023-05-19T16:42:04.445Z,24.32
2023-05-19T16:47:04.459Z,24.01
2023-05-19T16:52:04.449Z,24.31
2023-05-19T16:57:04.463Z,24.4
2023-05-19T17:02:04.466Z,24.55
2023-05-19T17:07:04.468Z,24.18
2023-05-19T17:12:04.470Z,24.01
2023-05-19T17:17:04.460Z,23.86
2023-05-19T17:22:04.475Z,23.96
2023-05-19T17:27:04.465Z,24.03
2023-05-19T17:32:04.479Z,23.9
2023-05-19T17:37:04.481Z,23.9
2023-05-19T17:42:04.471Z,23.67
2023-05-19T17:47:04.486Z,23.34
2023-05-19T17:52:04.476Z,23.29
2023-05-19T17:57:04.490Z,23.09
2023-05-19T18:02:04.492Z,23
2023-05-19T18:07:04.494Z,23.05
2023-05-19T18:12:04.496Z,22.91
2023-05-19T18:17:04.487Z,22.5
2023-05-19T18:22:04.501Z,22.34
2023-05-19T18:27:04.491Z,22.04
2023-05-19T18:32:04.529Z,21.62
2023-05-19T18:37:04.507Z,21.49
2023-05-19T18:42:04.509Z,21.32
2023-05-19T18:47:04.511Z,21.2
2023-05-19T18:52:04.501Z,20.86
2023-05-19T18:57:04.515Z,20.45
2023-05-19T19:02:04.506Z,20.27
2023-05-19T19:07:04.519Z,20.12
2023-05-19T19:12:04.521Z,20.12
2023-05-19T19:17:04.511Z,20.24
2023-05-19T19:22:04.524Z,20.12
2023-05-19T19:27:04.514Z,19.98
2023-05-19T19:32:04.528Z,19.96
2023-05-19T19:37:04.530Z,20.03
2023-05-19T19:42:04.532Z,20.11
2023-05-19T19:47:04.534Z,20.26
2023-05-19T19:57:21.015Z,20.34
2023-05-19T20:02:32.850Z,20.33
2023-05-19T20:07:21.020Z,20.21
2023-05-19T20:12:21.021Z,20.26
2023-05-19T20:17:04.545Z,20.15
2023-05-19T20:22:04.547Z,20.26
2023-05-19T20:27:04.537Z,20.33
2023-05-19T20:32:04.551Z,20.28
2023-05-19T20:37:04.553Z,20.2
2023-05-19T20:42:04.543Z,20.2
2023-05-19T20:47:04.557Z,20.04
2023-05-19T20:52:04.547Z,19.96
2023-05-19T20:57:04.561Z,19.98
2023-05-19T21:02:05.672Z,19.91
2023-05-19T21:07:04.564Z,19.91
2023-05-19T21:12:04.566Z,19.85
2023-05-19T21:17:04.557Z,19.85
2023-05-19T21:22:04.570Z,19.67
2023-05-19T21:27:04.560Z,19.41
2023-05-19T21:32:04.574Z,19.12
2023-05-19T21:37:04.575Z,18.95
2023-05-19T21:42:04.565Z,18.82
2023-05-19T21:47:04.579Z,18.74
2023-05-19T21:52:04.569Z,18.62
2023-05-19T21:57:04.583Z,18.54
2023-05-19T22:02:11.696Z,18.51
2023-05-19T22:07:04.586Z,18.42
2023-05-19T22:12:04.588Z,18.45
2023-05-19T22:17:04.578Z,18.45
2023-05-19T22:22:04.591Z,18.52
2023-05-19T22:27:04.581Z,18.59
2023-05-19T22:32:04.595Z,18.6
2023-05-19T22:37:04.597Z,18.67
2023-05-19T22:42:04.622Z,18.7
2023-05-19T22:47:04.599Z,18.57
2023-05-19T22:52:04.590Z,18.52
2023-05-19T22:57:04.603Z,18.4
2023-05-19T23:02:17.676Z,18.35
2023-05-19T23:07:04.607Z,18.26
2023-05-19T23:12:04.658Z,18.17
2023-05-19T23:17:04.600Z,18.06
2023-05-19T23:22:04.613Z,17.99
2023-05-19T23:27:04.602Z,18
2023-05-19T23:32:04.615Z,18.04
2023-05-19T23:37:04.616Z,18.04
2023-05-19T23:42:04.618Z,18.03
2023-05-19T23:47:04.620Z,17.94
2023-05-19T23:52:04.612Z,17.83
2023-05-19T23:57:04.623Z,17.86
